Main page
METAR-TAF:

METAR-TAF

Airports :

Dallas / Fort Worth, Texas, United States

Dallas/Fort Worth International Airport

latitude: 32-53-49N, longitude: 097-01-19W, elevation: 183 m

Current weather observation

The report was made 21 minutes ago, at 03:53 UTC
Wind 7 kt from the Northwest
Temperature 16°C
Humidity 45%
Pressure 1021 hPa
Visibility: 16.1 km
Clear sky

METAR: KDFW 230353Z 31007KT 10SM CLR 16/04 A3015 RMK AO2 SLP204 T01560044 $

Time: 23:14 (04:14 UTC)

Forecast

The report was made 1 hour and 7 minutes ago, at 03:07 UTC
Forecast valid from 23 at 03 UTC to 24 at 06 UTC
Wind 6 kt from the North/Northwest
Visibility: 10 km
Clear sky
From 23 at 0900 UTC
Wind 7 kt from the West/Southwest
Visibility: 10 km
Clear sky
From 23 at 2300 UTC
Wind 11 kt from the Northwest
Visibility: 10 km
Clear sky

TAF: KDFW 230307Z 2303/2406 33006KT P6SM SKC FM230900 24007KT P6SM SKC FM232300 32011KT P6SM SKC

Weather observations and forecasts of more than 4000 airports (METAR and TAF reports).

The available stations are represented by yellow and red dots on the map.

Hover mouse over dot to see the name of the station.

Then click to see weather observations and forecasts.

To change the map : click on the green buttons with a black cross to zoom in, on the green button with a dash to zoom out, or on the green arrows for adjacent maps.


METAR-TAF: